sensor_id;sensor_type;location;lat;lon;timestamp;temperature;humidity
26270;DHT22;15937;50.612;6.656;2022-09-09T00:01:28;16.60;99.90
26270;DHT22;15937;50.612;6.656;2022-09-09T00:05:35;16.70;99.90
26270;DHT22;15937;50.612;6.656;2022-09-09T00:09:46;16.60;99.90
26270;DHT22;15937;50.612;6.656;2022-09-09T00:13:52;16.50;99.90
26270;DHT22;15937;50.612;6.656;2022-09-09T00:17:57;16.60;99.90
26270;DHT22;15937;50.612;6.656;2022-09-09T00:26:21;16.70;99.90
26270;DHT22;15937;50.612;6.656;2022-09-09T00:30:26;16.60;99.90
26270;DHT22;15937;50.612;6.656;2022-09-09T00:34:28;16.60;99.90
26270;DHT22;15937;50.612;6.656;2022-09-09T00:38:35;16.60;99.90
26270;DHT22;15937;50.612;6.656;2022-09-09T00:42:41;16.50;99.90
26270;DHT22;15937;50.612;6.656;2022-09-09T00:47:44;16.60;99.90
26270;DHT22;15937;50.612;6.656;2022-09-09T00:55:39;16.50;99.90
26270;DHT22;15937;50.612;6.656;2022-09-09T01:07:47;16.50;99.90
26270;DHT22;15937;50.612;6.656;2022-09-09T01:15:52;16.50;99.90
26270;DHT22;15937;50.612;6.656;2022-09-09T01:20:04;16.50;99.90
26270;DHT22;15937;50.612;6.656;2022-09-09T01:28:12;16.50;99.90
26270;DHT22;15937;50.612;6.656;2022-09-09T01:36:43;16.40;99.90
26270;DHT22;15937;50.612;6.656;2022-09-09T01:40:45;16.40;99.90
26270;DHT22;15937;50.612;6.656;2022-09-09T01:44:47;16.50;99.90
26270;DHT22;15937;50.612;6.656;2022-09-09T01:48:50;16.60;99.90
26270;DHT22;15937;50.612;6.656;2022-09-09T01:52:56;16.50;99.90
26270;DHT22;15937;50.612;6.656;2022-09-09T02:01:12;16.50;99.90
26270;DHT22;15937;50.612;6.656;2022-09-09T02:09:37;16.50;99.90
26270;DHT22;15937;50.612;6.656;2022-09-09T02:13:40;16.40;99.90
26270;DHT22;15937;50.612;6.656;2022-09-09T02:17:44;16.60;99.90
26270;DHT22;15937;50.612;6.656;2022-09-09T02:21:47;16.50;99.90
26270;DHT22;15937;50.612;6.656;2022-09-09T02:25:49;16.60;99.90
26270;DHT22;15937;50.612;6.656;2022-09-09T02:29:53;16.60;99.90
26270;DHT22;15937;50.612;6.656;2022-09-09T02:33:55;16.60;99.90
26270;DHT22;15937;50.612;6.656;2022-09-09T02:37:59;16.50;99.90
26270;DHT22;15937;50.612;6.656;2022-09-09T02:42:03;16.70;99.90
26270;DHT22;15937;50.612;6.656;2022-09-09T02:46:15;16.50;99.90
26270;DHT22;15937;50.612;6.656;2022-09-09T02:54:30;16.60;99.90
26270;DHT22;15937;50.612;6.656;2022-09-09T02:58:32;16.60;99.90
26270;DHT22;15937;50.612;6.656;2022-09-09T03:02:34;16.70;99.90
26270;DHT22;15937;50.612;6.656;2022-09-09T03:06:35;16.80;99.90
26270;DHT22;15937;50.612;6.656;2022-09-09T03:10:37;16.60;99.90
26270;DHT22;15937;50.612;6.656;2022-09-09T03:14:39;16.70;99.90
26270;DHT22;15937;50.612;6.656;2022-09-09T03:18:40;16.80;99.90
26270;DHT22;15937;50.612;6.656;2022-09-09T03:22:42;16.60;99.90
26270;DHT22;15937;50.612;6.656;2022-09-09T03:26:45;16.60;99.90
26270;DHT22;15937;50.612;6.656;2022-09-09T03:30:46;16.60;99.90
26270;DHT22;15937;50.612;6.656;2022-09-09T03:34:48;16.60;99.90
26270;DHT22;15937;50.612;6.656;2022-09-09T03:38:51;16.50;99.90
26270;DHT22;15937;50.612;6.656;2022-09-09T03:42:52;16.60;99.90
26270;DHT22;15937;50.612;6.656;2022-09-09T03:46:54;16.60;99.90
26270;DHT22;15937;50.612;6.656;2022-09-09T03:50:55;16.60;99.90
26270;DHT22;15937;50.612;6.656;2022-09-09T03:55:02;16.60;99.90
26270;DHT22;15937;50.612;6.656;2022-09-09T03:59:04;16.40;99.90
26270;DHT22;15937;50.612;6.656;2022-09-09T04:03:05;16.40;99.90
26270;DHT22;15937;50.612;6.656;2022-09-09T04:07:07;16.20;99.90
26270;DHT22;15937;50.612;6.656;2022-09-09T04:11:09;16.10;99.90
26270;DHT22;15937;50.612;6.656;2022-09-09T04:15:11;16.10;99.90
26270;DHT22;15937;50.612;6.656;2022-09-09T04:19:13;16.10;99.90
26270;DHT22;15937;50.612;6.656;2022-09-09T04:23:15;16.00;99.90
26270;DHT22;15937;50.612;6.656;2022-09-09T04:27:18;16.00;99.90
26270;DHT22;15937;50.612;6.656;2022-09-09T04:31:20;16.00;99.90
26270;DHT22;15937;50.612;6.656;2022-09-09T04:35:24;15.90;99.90
26270;DHT22;15937;50.612;6.656;2022-09-09T04:39:26;15.90;99.90
26270;DHT22;15937;50.612;6.656;2022-09-09T04:43:28;15.90;99.90
26270;DHT22;15937;50.612;6.656;2022-09-09T04:47:32;15.80;99.90
26270;DHT22;15937;50.612;6.656;2022-09-09T04:51:33;15.80;99.90
26270;DHT22;15937;50.612;6.656;2022-09-09T04:55:35;15.80;99.90
26270;DHT22;15937;50.612;6.656;2022-09-09T04:59:37;15.90;99.90
26270;DHT22;15937;50.612;6.656;2022-09-09T05:03:41;16.00;99.90
26270;DHT22;15937;50.612;6.656;2022-09-09T05:07:43;16.00;99.90
26270;DHT22;15937;50.612;6.656;2022-09-09T05:11:45;16.00;99.90
26270;DHT22;15937;50.612;6.656;2022-09-09T05:15:53;16.00;99.90
26270;DHT22;15937;50.612;6.656;2022-09-09T05:19:55;16.00;99.90
26270;DHT22;15937;50.612;6.656;2022-09-09T05:23:56;16.00;99.90
26270;DHT22;15937;50.612;6.656;2022-09-09T05:27:59;16.10;99.90
26270;DHT22;15937;50.612;6.656;2022-09-09T05:32:01;16.10;99.90
26270;DHT22;15937;50.612;6.656;2022-09-09T05:40:09;16.10;99.90
26270;DHT22;15937;50.612;6.656;2022-09-09T05:44:12;16.10;99.90
26270;DHT22;15937;50.612;6.656;2022-09-09T05:48:14;16.10;99.90
26270;DHT22;15937;50.612;6.656;2022-09-09T05:52:17;16.20;99.90
26270;DHT22;15937;50.612;6.656;2022-09-09T05:56:20;16.10;99.90
26270;DHT22;15937;50.612;6.656;2022-09-09T06:00:23;16.20;99.90
26270;DHT22;15937;50.612;6.656;2022-09-09T06:04:24;16.20;99.90
26270;DHT22;15937;50.612;6.656;2022-09-09T06:08:26;16.10;99.90
26270;DHT22;15937;50.612;6.656;2022-09-09T06:12:28;16.20;99.90
26270;DHT22;15937;50.612;6.656;2022-09-09T06:16:30;16.40;99.90
26270;DHT22;15937;50.612;6.656;2022-09-09T06:20:34;16.60;99.90
26270;DHT22;15937;50.612;6.656;2022-09-09T06:24:36;16.60;99.90
26270;DHT22;15937;50.612;6.656;2022-09-09T06:28:37;16.60;99.90
26270;DHT22;15937;50.612;6.656;2022-09-09T06:32:39;16.80;99.90
26270;DHT22;15937;50.612;6.656;2022-09-09T06:36:41;17.00;99.90
26270;DHT22;15937;50.612;6.656;2022-09-09T06:40:42;17.00;99.90
26270;DHT22;15937;50.612;6.656;2022-09-09T06:44:45;17.20;99.90
26270;DHT22;15937;50.612;6.656;2022-09-09T06:48:46;17.20;99.90
26270;DHT22;15937;50.612;6.656;2022-09-09T06:52:48;17.20;99.90
26270;DHT22;15937;50.612;6.656;2022-09-09T06:56:50;17.40;99.90
26270;DHT22;15937;50.612;6.656;2022-09-09T07:00:52;17.40;99.90
26270;DHT22;15937;50.612;6.656;2022-09-09T07:04:54;17.40;99.90
26270;DHT22;15937;50.612;6.656;2022-09-09T07:08:56;17.40;99.90
26270;DHT22;15937;50.612;6.656;2022-09-09T07:12:59;17.70;99.90
26270;DHT22;15937;50.612;6.656;2022-09-09T07:17:01;17.70;99.90
26270;DHT22;15937;50.612;6.656;2022-09-09T07:21:03;17.70;99.90
26270;DHT22;15937;50.612;6.656;2022-09-09T07:25:05;17.80;99.90
26270;DHT22;15937;50.612;6.656;2022-09-09T07:29:07;17.70;99.90
26270;DHT22;15937;50.612;6.656;2022-09-09T07:33:09;17.60;99.90
26270;DHT22;15937;50.612;6.656;2022-09-09T07:37:11;17.70;99.90
26270;DHT22;15937;50.612;6.656;2022-09-09T07:41:16;17.60;99.90
26270;DHT22;15937;50.612;6.656;2022-09-09T07:45:18;17.70;99.90
26270;DHT22;15937;50.612;6.656;2022-09-09T07:49:20;17.80;99.90
26270;DHT22;15937;50.612;6.656;2022-09-09T07:53:30;17.60;99.90
26270;DHT22;15937;50.612;6.656;2022-09-09T07:57:32;17.70;99.90
26270;DHT22;15937;50.612;6.656;2022-09-09T08:01:35;17.90;99.90
26270;DHT22;15937;50.612;6.656;2022-09-09T08:05:38;18.00;99.90
26270;DHT22;15937;50.612;6.656;2022-09-09T08:09:41;18.20;99.90
26270;DHT22;15937;50.612;6.656;2022-09-09T08:13:43;18.40;99.90
26270;DHT22;15937;50.612;6.656;2022-09-09T08:17:45;18.30;99.90
26270;DHT22;15937;50.612;6.656;2022-09-09T08:21:47;18.50;99.90
26270;DHT22;15937;50.612;6.656;2022-09-09T08:25:50;18.60;99.90
26270;DHT22;15937;50.612;6.656;2022-09-09T08:29:52;18.50;99.90
26270;DHT22;15937;50.612;6.656;2022-09-09T08:33:54;18.50;99.90
26270;DHT22;15937;50.612;6.656;2022-09-09T08:37:57;18.70;99.90
26270;DHT22;15937;50.612;6.656;2022-09-09T08:54:23;18.50;99.90
26270;DHT22;15937;50.612;6.656;2022-09-09T08:58:49;18.50;99.90
26270;DHT22;15937;50.612;6.656;2022-09-09T09:11:04;19.20;99.90
26270;DHT22;15937;50.612;6.656;2022-09-09T09:15:16;19.10;99.90
26270;DHT22;15937;50.612;6.656;2022-09-09T09:19:19;19.30;99.90
26270;DHT22;15937;50.612;6.656;2022-09-09T09:23:25;19.00;99.90
26270;DHT22;15937;50.612;6.656;2022-09-09T09:27:34;18.90;99.90
26270;DHT22;15937;50.612;6.656;2022-09-09T09:31:36;19.30;99.90
26270;DHT22;15937;50.612;6.656;2022-09-09T09:35:38;19.30;99.90
26270;DHT22;15937;50.612;6.656;2022-09-09T09:39:44;19.30;99.90
26270;DHT22;15937;50.612;6.656;2022-09-09T09:44:18;19.70;99.90
26270;DHT22;15937;50.612;6.656;2022-09-09T09:48:23;19.60;99.90
26270;DHT22;15937;50.612;6.656;2022-09-09T09:52:26;19.60;99.90
26270;DHT22;15937;50.612;6.656;2022-09-09T09:56:29;19.40;99.90
26270;DHT22;15937;50.612;6.656;2022-09-09T10:00:31;19.10;99.90
26270;DHT22;15937;50.612;6.656;2022-09-09T10:04:33;18.80;99.90
26270;DHT22;15937;50.612;6.656;2022-09-09T10:08:44;18.90;99.90
26270;DHT22;15937;50.612;6.656;2022-09-09T10:13:07;18.90;99.90
26270;DHT22;15937;50.612;6.656;2022-09-09T10:34:01;19.80;99.90
26270;DHT22;15937;50.612;6.656;2022-09-09T10:38:13;19.70;99.90
26270;DHT22;15937;50.612;6.656;2022-09-09T10:42:16;19.70;99.90
26270;DHT22;15937;50.612;6.656;2022-09-09T10:55:00;20.60;99.90
26270;DHT22;15937;50.612;6.656;2022-09-09T10:59:04;20.60;99.90
26270;DHT22;15937;50.612;6.656;2022-09-09T11:03:12;20.60;99.90
26270;DHT22;15937;50.612;6.656;2022-09-09T11:07:26;20.20;99.90
26270;DHT22;15937;50.612;6.656;2022-09-09T11:11:37;20.00;99.90
26270;DHT22;15937;50.612;6.656;2022-09-09T11:15:42;20.30;99.90
26270;DHT22;15937;50.612;6.656;2022-09-09T11:19:45;20.30;99.90
26270;DHT22;15937;50.612;6.656;2022-09-09T11:23:55;20.10;99.90
26270;DHT22;15937;50.612;6.656;2022-09-09T11:28:21;20.00;99.90
26270;DHT22;15937;50.612;6.656;2022-09-09T11:36:52;20.00;99.90
26270;DHT22;15937;50.612;6.656;2022-09-09T11:40:58;20.10;99.90
26270;DHT22;15937;50.612;6.656;2022-09-09T11:53:50;21.30;99.90
26270;DHT22;15937;50.612;6.656;2022-09-09T11:58:01;20.30;99.90
26270;DHT22;15937;50.612;6.656;2022-09-09T12:02:10;20.80;99.90
26270;DHT22;15937;50.612;6.656;2022-09-09T12:06:25;21.40;99.90
26270;DHT22;15937;50.612;6.656;2022-09-09T12:10:34;21.50;99.90
26270;DHT22;15937;50.612;6.656;2022-09-09T12:18:39;20.60;99.90
26270;DHT22;15937;50.612;6.656;2022-09-09T12:39:14;20.30;99.90
26270;DHT22;15937;50.612;6.656;2022-09-09T12:43:18;19.60;99.90
26270;DHT22;15937;50.612;6.656;2022-09-09T12:47:23;20.40;99.90
26270;DHT22;15937;50.612;6.656;2022-09-09T12:51:31;20.10;99.90
26270;DHT22;15937;50.612;6.656;2022-09-09T12:55:37;20.10;99.90
26270;DHT22;15937;50.612;6.656;2022-09-09T12:59:41;20.70;99.90
26270;DHT22;15937;50.612;6.656;2022-09-09T13:03:43;20.40;99.90
26270;DHT22;15937;50.612;6.656;2022-09-09T13:07:48;20.60;99.90
26270;DHT22;15937;50.612;6.656;2022-09-09T13:11:52;20.30;99.90
26270;DHT22;15937;50.612;6.656;2022-09-09T13:15:58;20.20;99.90
26270;DHT22;15937;50.612;6.656;2022-09-09T13:20:00;20.30;99.90
26270;DHT22;15937;50.612;6.656;2022-09-09T13:24:03;20.10;99.90
26270;DHT22;15937;50.612;6.656;2022-09-09T13:28:19;20.10;99.90
26270;DHT22;15937;50.612;6.656;2022-09-09T13:32:22;20.10;99.90
26270;DHT22;15937;50.612;6.656;2022-09-09T13:36:28;19.80;99.90
26270;DHT22;15937;50.612;6.656;2022-09-09T13:40:30;20.50;99.90
26270;DHT22;15937;50.612;6.656;2022-09-09T13:44:34;19.70;99.90
26270;DHT22;15937;50.612;6.656;2022-09-09T13:48:37;19.70;99.90
26270;DHT22;15937;50.612;6.656;2022-09-09T13:52:39;20.00;99.90
26270;DHT22;15937;50.612;6.656;2022-09-09T13:56:41;20.30;99.90
26270;DHT22;15937;50.612;6.656;2022-09-09T14:00:43;20.70;99.90
26270;DHT22;15937;50.612;6.656;2022-09-09T14:04:46;20.80;99.90
26270;DHT22;15937;50.612;6.656;2022-09-09T14:08:51;20.90;99.90
26270;DHT22;15937;50.612;6.656;2022-09-09T14:12:53;20.60;99.90
26270;DHT22;15937;50.612;6.656;2022-09-09T14:16:54;20.50;99.90
26270;DHT22;15937;50.612;6.656;2022-09-09T14:20:56;20.20;99.90
26270;DHT22;15937;50.612;6.656;2022-09-09T14:25:00;20.60;99.90
26270;DHT22;15937;50.612;6.656;2022-09-09T14:29:01;20.70;99.90
26270;DHT22;15937;50.612;6.656;2022-09-09T14:33:04;20.80;99.90
26270;DHT22;15937;50.612;6.656;2022-09-09T14:37:06;20.90;99.90
26270;DHT22;15937;50.612;6.656;2022-09-09T14:41:15;21.10;99.90
26270;DHT22;15937;50.612;6.656;2022-09-09T14:45:20;20.90;99.90
26270;DHT22;15937;50.612;6.656;2022-09-09T14:49:22;20.60;99.90
26270;DHT22;15937;50.612;6.656;2022-09-09T14:53:24;20.50;99.90
26270;DHT22;15937;50.612;6.656;2022-09-09T14:57:25;20.10;99.90
26270;DHT22;15937;50.612;6.656;2022-09-09T15:01:27;19.60;99.90
26270;DHT22;15937;50.612;6.656;2022-09-09T15:05:29;19.30;99.90
26270;DHT22;15937;50.612;6.656;2022-09-09T15:09:33;19.20;99.90
26270;DHT22;15937;50.612;6.656;2022-09-09T15:13:36;19.20;99.90
26270;DHT22;15937;50.612;6.656;2022-09-09T15:17:41;19.20;99.90
26270;DHT22;15937;50.612;6.656;2022-09-09T15:21:42;19.10;99.90
26270;DHT22;15937;50.612;6.656;2022-09-09T15:25:51;19.20;99.90
26270;DHT22;15937;50.612;6.656;2022-09-09T15:29:53;19.20;99.90
26270;DHT22;15937;50.612;6.656;2022-09-09T15:33:55;19.50;99.90
26270;DHT22;15937;50.612;6.656;2022-09-09T15:38:02;19.80;99.90
26270;DHT22;15937;50.612;6.656;2022-09-09T15:42:06;20.10;99.90
26270;DHT22;15937;50.612;6.656;2022-09-09T15:46:21;20.30;99.90
26270;DHT22;15937;50.612;6.656;2022-09-09T15:50:25;20.20;99.90
26270;DHT22;15937;50.612;6.656;2022-09-09T15:54:30;19.70;99.90
26270;DHT22;15937;50.612;6.656;2022-09-09T15:58:33;19.60;99.90
26270;DHT22;15937;50.612;6.656;2022-09-09T16:02:35;19.30;99.90
26270;DHT22;15937;50.612;6.656;2022-09-09T16:06:38;19.20;99.90
26270;DHT22;15937;50.612;6.656;2022-09-09T16:10:40;19.00;99.90
26270;DHT22;15937;50.612;6.656;2022-09-09T16:14:42;18.50;99.90
26270;DHT22;15937;50.612;6.656;2022-09-09T16:18:45;18.40;99.90
26270;DHT22;15937;50.612;6.656;2022-09-09T16:22:47;18.40;99.90
26270;DHT22;15937;50.612;6.656;2022-09-09T16:26:49;18.10;99.90
26270;DHT22;15937;50.612;6.656;2022-09-09T16:30:51;17.80;99.90
26270;DHT22;15937;50.612;6.656;2022-09-09T16:34:53;17.80;99.90
26270;DHT22;15937;50.612;6.656;2022-09-09T16:38:55;17.60;99.90
26270;DHT22;15937;50.612;6.656;2022-09-09T16:42:58;17.80;99.90
26270;DHT22;15937;50.612;6.656;2022-09-09T16:47:00;17.80;99.90
26270;DHT22;15937;50.612;6.656;2022-09-09T16:51:05;17.60;99.90
26270;DHT22;15937;50.612;6.656;2022-09-09T16:55:08;17.60;99.90
26270;DHT22;15937;50.612;6.656;2022-09-09T16:59:11;17.70;99.90
26270;DHT22;15937;50.612;6.656;2022-09-09T17:03:13;17.70;99.90
26270;DHT22;15937;50.612;6.656;2022-09-09T17:07:15;17.70;99.90
26270;DHT22;15937;50.612;6.656;2022-09-09T17:11:18;17.60;99.90
26270;DHT22;15937;50.612;6.656;2022-09-09T17:15:21;17.40;99.90
26270;DHT22;15937;50.612;6.656;2022-09-09T17:19:25;17.40;99.90
26270;DHT22;15937;50.612;6.656;2022-09-09T17:23:27;17.50;99.90
26270;DHT22;15937;50.612;6.656;2022-09-09T17:27:32;17.40;99.90
26270;DHT22;15937;50.612;6.656;2022-09-09T17:31:35;17.50;99.90
26270;DHT22;15937;50.612;6.656;2022-09-09T17:35:37;17.30;99.90
26270;DHT22;15937;50.612;6.656;2022-09-09T17:39:39;17.40;99.90
26270;DHT22;15937;50.612;6.656;2022-09-09T17:43:41;17.30;99.90
26270;DHT22;15937;50.612;6.656;2022-09-09T17:47:44;17.20;99.90
26270;DHT22;15937;50.612;6.656;2022-09-09T17:51:49;17.20;99.90
26270;DHT22;15937;50.612;6.656;2022-09-09T17:55:51;17.20;99.90
26270;DHT22;15937;50.612;6.656;2022-09-09T17:59:53;17.20;99.90
26270;DHT22;15937;50.612;6.656;2022-09-09T18:03:56;17.10;99.90
26270;DHT22;15937;50.612;6.656;2022-09-09T18:07:58;17.10;99.90
26270;DHT22;15937;50.612;6.656;2022-09-09T18:11:59;17.00;99.90
26270;DHT22;15937;50.612;6.656;2022-09-09T18:16:06;17.10;99.90
26270;DHT22;15937;50.612;6.656;2022-09-09T18:20:09;17.00;99.90
26270;DHT22;15937;50.612;6.656;2022-09-09T18:24:13;17.00;99.90
26270;DHT22;15937;50.612;6.656;2022-09-09T18:28:15;17.10;99.90
26270;DHT22;15937;50.612;6.656;2022-09-09T18:32:17;17.00;99.90
26270;DHT22;15937;50.612;6.656;2022-09-09T18:36:42;17.10;99.90
26270;DHT22;15937;50.612;6.656;2022-09-09T18:40:43;17.00;99.90
26270;DHT22;15937;50.612;6.656;2022-09-09T18:44:45;17.10;99.90
26270;DHT22;15937;50.612;6.656;2022-09-09T18:48:47;17.10;99.90
26270;DHT22;15937;50.612;6.656;2022-09-09T18:52:50;17.10;99.90
26270;DHT22;15937;50.612;6.656;2022-09-09T18:56:53;17.10;99.90
26270;DHT22;15937;50.612;6.656;2022-09-09T19:00:55;17.00;99.90
26270;DHT22;15937;50.612;6.656;2022-09-09T19:04:57;17.10;99.90
26270;DHT22;15937;50.612;6.656;2022-09-09T19:08:59;16.90;99.90
26270;DHT22;15937;50.612;6.656;2022-09-09T19:13:06;16.90;99.90
26270;DHT22;15937;50.612;6.656;2022-09-09T19:17:08;16.80;99.90
26270;DHT22;15937;50.612;6.656;2022-09-09T19:21:23;16.80;99.90
26270;DHT22;15937;50.612;6.656;2022-09-09T19:25:25;16.80;99.90
26270;DHT22;15937;50.612;6.656;2022-09-09T19:29:27;16.70;99.90
26270;DHT22;15937;50.612;6.656;2022-09-09T19:33:29;16.80;99.90
26270;DHT22;15937;50.612;6.656;2022-09-09T19:37:31;16.70;99.90
26270;DHT22;15937;50.612;6.656;2022-09-09T19:41:33;16.60;99.90
26270;DHT22;15937;50.612;6.656;2022-09-09T19:45:35;16.60;99.90
26270;DHT22;15937;50.612;6.656;2022-09-09T19:49:36;16.70;99.90
26270;DHT22;15937;50.612;6.656;2022-09-09T19:53:39;16.70;99.90
26270;DHT22;15937;50.612;6.656;2022-09-09T19:57:41;16.60;99.90
26270;DHT22;15937;50.612;6.656;2022-09-09T20:01:43;16.60;99.90
26270;DHT22;15937;50.612;6.656;2022-09-09T20:05:46;16.60;99.90
26270;DHT22;15937;50.612;6.656;2022-09-09T20:09:49;16.70;99.90
26270;DHT22;15937;50.612;6.656;2022-09-09T20:13:53;16.60;99.90
26270;DHT22;15937;50.612;6.656;2022-09-09T20:17:55;16.60;99.90
26270;DHT22;15937;50.612;6.656;2022-09-09T20:21:57;16.60;99.90
26270;DHT22;15937;50.612;6.656;2022-09-09T20:26:00;16.60;99.90
26270;DHT22;15937;50.612;6.656;2022-09-09T20:30:03;16.50;99.90
26270;DHT22;15937;50.612;6.656;2022-09-09T20:34:06;16.50;99.90
26270;DHT22;15937;50.612;6.656;2022-09-09T20:38:08;16.50;99.90
26270;DHT22;15937;50.612;6.656;2022-09-09T20:42:09;16.40;99.90
26270;DHT22;15937;50.612;6.656;2022-09-09T20:46:11;16.50;99.90
26270;DHT22;15937;50.612;6.656;2022-09-09T20:50:13;16.40;99.90
26270;DHT22;15937;50.612;6.656;2022-09-09T20:54:19;16.40;99.90
26270;DHT22;15937;50.612;6.656;2022-09-09T20:58:23;16.40;99.90
26270;DHT22;15937;50.612;6.656;2022-09-09T21:02:25;16.40;99.90
26270;DHT22;15937;50.612;6.656;2022-09-09T21:06:26;16.40;99.90
26270;DHT22;15937;50.612;6.656;2022-09-09T21:10:28;16.40;99.90
26270;DHT22;15937;50.612;6.656;2022-09-09T21:14:29;16.40;99.90
26270;DHT22;15937;50.612;6.656;2022-09-09T21:22:36;16.30;99.90
26270;DHT22;15937;50.612;6.656;2022-09-09T21:31:35;16.30;99.90
26270;DHT22;15937;50.612;6.656;2022-09-09T21:35:38;16.20;99.90
26270;DHT22;15937;50.612;6.656;2022-09-09T21:39:40;16.10;99.90
26270;DHT22;15937;50.612;6.656;2022-09-09T21:43:43;16.10;99.90
26270;DHT22;15937;50.612;6.656;2022-09-09T21:47:45;16.10;99.90
26270;DHT22;15937;50.612;6.656;2022-09-09T21:51:47;16.00;99.90
26270;DHT22;15937;50.612;6.656;2022-09-09T21:55:49;16.00;99.90
26270;DHT22;15937;50.612;6.656;2022-09-09T21:59:52;16.00;99.90
26270;DHT22;15937;50.612;6.656;2022-09-09T22:03:53;16.10;99.90
26270;DHT22;15937;50.612;6.656;2022-09-09T22:07:55;16.00;99.90
26270;DHT22;15937;50.612;6.656;2022-09-09T22:11:57;16.00;99.90
26270;DHT22;15937;50.612;6.656;2022-09-09T22:16:00;16.00;99.90
26270;DHT22;15937;50.612;6.656;2022-09-09T22:20:04;16.00;99.90
26270;DHT22;15937;50.612;6.656;2022-09-09T22:24:05;16.00;99.90
26270;DHT22;15937;50.612;6.656;2022-09-09T22:28:08;16.00;99.90
26270;DHT22;15937;50.612;6.656;2022-09-09T22:32:09;16.00;99.90
26270;DHT22;15937;50.612;6.656;2022-09-09T22:36:11;16.00;99.90
26270;DHT22;15937;50.612;6.656;2022-09-09T22:40:13;15.90;99.90
26270;DHT22;15937;50.612;6.656;2022-09-09T22:44:14;15.90;99.90
26270;DHT22;15937;50.612;6.656;2022-09-09T22:48:16;15.90;99.90
26270;DHT22;15937;50.612;6.656;2022-09-09T22:52:18;15.70;99.90
26270;DHT22;15937;50.612;6.656;2022-09-09T22:56:20;15.80;99.90
26270;DHT22;15937;50.612;6.656;2022-09-09T23:00:22;15.70;99.90
26270;DHT22;15937;50.612;6.656;2022-09-09T23:04:24;15.70;99.90
26270;DHT22;15937;50.612;6.656;2022-09-09T23:08:31;15.70;99.90
26270;DHT22;15937;50.612;6.656;2022-09-09T23:12:33;15.60;99.90
26270;DHT22;15937;50.612;6.656;2022-09-09T23:16:36;15.70;99.90
26270;DHT22;15937;50.612;6.656;2022-09-09T23:20:40;15.70;99.90
26270;DHT22;15937;50.612;6.656;2022-09-09T23:24:41;15.70;99.90
26270;DHT22;15937;50.612;6.656;2022-09-09T23:28:43;15.70;99.90
26270;DHT22;15937;50.612;6.656;2022-09-09T23:32:47;15.70;99.90
26270;DHT22;15937;50.612;6.656;2022-09-09T23:36:48;15.70;99.90
26270;DHT22;15937;50.612;6.656;2022-09-09T23:40:50;15.70;99.90
26270;DHT22;15937;50.612;6.656;2022-09-09T23:44:52;15.60;99.90
26270;DHT22;15937;50.612;6.656;2022-09-09T23:48:54;15.60;99.90
26270;DHT22;15937;50.612;6.656;2022-09-09T23:52:57;15.60;99.90
26270;DHT22;15937;50.612;6.656;2022-09-09T23:56:59;15.70;99.90
